createdAt,value
2017-12-30T00:01:22.145Z,99155.31
2017-12-30T00:03:49.581Z,99156.36
2017-12-30T00:06:17.010Z,99160.70
2017-12-30T00:08:44.428Z,99169.72
2017-12-30T00:11:11.882Z,99177.70
2017-12-30T00:13:39.306Z,99176.53
2017-12-30T00:16:06.731Z,99178.61
2017-12-30T00:18:34.184Z,99180.98
2017-12-30T00:21:01.617Z,99182.17
2017-12-30T00:23:29.043Z,99176.13
2017-12-30T00:25:56.498Z,99181.52
2017-12-30T00:28:23.925Z,99187.64
2017-12-30T00:30:51.374Z,99187.13
2017-12-30T00:33:18.790Z,99188.95
2017-12-30T00:35:47.028Z,99187.48
2017-12-30T00:38:14.455Z,99196.38
2017-12-30T00:40:41.875Z,99194.04
2017-12-30T00:43:09.557Z,99191.79
2017-12-30T00:45:37.595Z,99195.34
2017-12-30T00:48:05.736Z,99203.83
2017-12-30T00:50:33.201Z,99210.39
2017-12-30T00:53:01.153Z,99210.66
2017-12-30T00:55:28.591Z,99216.62
2017-12-30T00:57:56.044Z,99217.41
2017-12-30T01:00:23.471Z,99214.79
2017-12-30T01:02:50.967Z,99216.09
2017-12-30T01:05:18.377Z,99219.35
2017-12-30T01:07:45.813Z,99225.66
2017-12-30T01:10:13.252Z,99219.11
2017-12-30T01:12:40.665Z,99225.88
2017-12-30T01:15:08.827Z,99228.78
2017-12-30T01:17:36.284Z,99229.41
2017-12-30T01:20:03.749Z,99233.30
2017-12-30T01:22:31.228Z,99233.92
2017-12-30T01:24:58.639Z,99233.28
2017-12-30T01:27:26.074Z,99231.75
2017-12-30T01:29:53.498Z,99228.61
2017-12-30T01:32:21.179Z,99244.19
2017-12-30T01:34:48.622Z,99245.34
2017-12-30T01:37:16.079Z,99241.55
2017-12-30T01:39:43.490Z,99242.47
2017-12-30T01:42:10.959Z,99245.48
2017-12-30T01:44:38.406Z,99241.80
2017-12-30T01:47:05.867Z,99243.92
2017-12-30T01:49:33.293Z,99244.42
2017-12-30T01:52:00.736Z,99241.95
2017-12-30T01:54:28.177Z,99246.93
2017-12-30T01:56:55.624Z,99240.03
2017-12-30T01:59:23.048Z,99241.72
2017-12-30T02:01:50.560Z,99242.27
2017-12-30T02:04:18.047Z,99239.52
2017-12-30T02:06:45.510Z,99237.93
2017-12-30T02:09:12.967Z,99238.86
2017-12-30T02:11:40.428Z,99231.80
2017-12-30T02:14:07.862Z,99231.67
2017-12-30T02:16:35.315Z,99241.49
2017-12-30T02:19:03.329Z,99239.66
2017-12-30T02:21:30.759Z,99237.45
2017-12-30T02:23:58.183Z,99245.84
2017-12-30T02:26:25.633Z,99244.28
2017-12-30T02:28:53.067Z,99242.82
2017-12-30T02:31:20.552Z,99243.89
2017-12-30T02:33:47.969Z,99242.02
2017-12-30T02:36:15.418Z,99243.05
2017-12-30T02:38:42.854Z,99241.60
2017-12-30T02:41:10.272Z,99245.05
2017-12-30T02:43:37.696Z,99245.70
2017-12-30T02:46:05.134Z,99243.72
2017-12-30T02:48:32.577Z,99239.92
2017-12-30T02:51:00.026Z,99253.37
2017-12-30T02:53:27.519Z,99255.38
2017-12-30T02:55:54.958Z,99255.11
2017-12-30T02:58:22.376Z,99257.21
2017-12-30T03:00:50.356Z,99266.52
2017-12-30T03:03:17.800Z,99261.41
2017-12-30T03:05:45.272Z,99261.56
2017-12-30T03:08:12.718Z,99261.56
2017-12-30T03:10:40.167Z,99275.34
2017-12-30T03:13:07.613Z,99275.48
2017-12-30T03:15:35.077Z,99282.16
2017-12-30T03:18:03.523Z,99284.54
2017-12-30T03:20:30.983Z,99291.20
2017-12-30T03:22:58.430Z,99278.36
2017-12-30T03:25:25.835Z,99287.66
2017-12-30T03:27:53.279Z,99278.20
2017-12-30T03:30:20.710Z,99273.74
2017-12-30T03:32:48.212Z,99268.73
2017-12-30T03:35:15.644Z,99262.08
2017-12-30T03:37:43.068Z,99257.10
2017-12-30T03:40:10.493Z,99247.16
2017-12-30T03:42:37.910Z,99236.97
2017-12-30T03:45:05.360Z,99242.34
2017-12-30T03:47:33.633Z,99240.09
2017-12-30T03:50:01.088Z,99238.17
2017-12-30T03:52:28.522Z,99237.66
2017-12-30T03:54:55.939Z,99229.28
2017-12-30T03:57:23.375Z,99224.19
2017-12-30T03:59:50.795Z,99230.23
2017-12-30T04:02:18.300Z,99231.02
2017-12-30T04:04:45.711Z,99243.09
2017-12-30T04:07:14.040Z,99245.72
2017-12-30T04:09:41.447Z,99242.84
2017-12-30T04:12:08.874Z,99244.70
2017-12-30T04:14:36.309Z,99250.50
2017-12-30T04:17:03.771Z,99241.06
2017-12-30T04:19:31.201Z,99249.99
2017-12-30T04:21:58.670Z,99251.19
2017-12-30T04:24:26.104Z,99254.87
2017-12-30T04:26:53.539Z,99235.08
2017-12-30T04:29:20.959Z,99239.84
2017-12-30T04:31:49.176Z,99238.55
2017-12-30T04:34:16.627Z,99229.26
2017-12-30T04:36:44.152Z,99230.16
2017-12-30T04:39:11.583Z,99234.64
2017-12-30T04:41:39.052Z,99240.13
2017-12-30T04:44:06.459Z,99228.88
2017-12-30T04:46:33.891Z,99244.47
2017-12-30T04:49:01.318Z,99245.00
2017-12-30T04:51:28.756Z,99243.94
2017-12-30T04:53:56.196Z,99255.48
2017-12-30T04:56:23.602Z,99256.26
2017-12-30T04:58:51.084Z,99250.59
2017-12-30T05:01:18.509Z,99241.03
2017-12-30T05:03:45.995Z,99237.99
2017-12-30T05:06:13.499Z,99244.69
2017-12-30T05:08:40.940Z,99251.80
2017-12-30T05:11:08.368Z,99255.61
2017-12-30T05:13:35.876Z,99257.16
2017-12-30T05:16:03.311Z,99253.59
2017-12-30T05:18:30.742Z,99249.92
2017-12-30T05:20:58.177Z,99247.45
2017-12-30T05:23:25.604Z,99234.97
2017-12-30T05:25:53.058Z,99234.30
2017-12-30T05:28:21.242Z,99246.64
2017-12-30T05:30:48.659Z,99247.82
2017-12-30T05:33:16.126Z,99250.30
2017-12-30T05:35:43.555Z,99248.72
2017-12-30T05:38:10.978Z,99247.41
2017-12-30T05:40:38.411Z,99248.58
2017-12-30T05:43:05.842Z,99248.30
2017-12-30T05:45:33.301Z,99253.97
2017-12-30T05:48:01.038Z,99258.95
2017-12-30T05:50:28.482Z,99269.02
2017-12-30T05:52:56.595Z,99285.70
2017-12-30T05:55:24.059Z,99285.58
2017-12-30T05:57:51.463Z,99293.61
2017-12-30T06:00:18.888Z,99297.70
2017-12-30T06:02:46.308Z,99295.88
2017-12-30T06:05:13.751Z,99293.88
2017-12-30T06:07:41.213Z,99297.72
2017-12-30T06:10:08.640Z,99297.17
2017-12-30T06:12:36.324Z,99289.56
2017-12-30T06:15:03.758Z,99292.45
2017-12-30T06:17:32.021Z,99290.63
2017-12-30T06:19:59.437Z,99282.50
2017-12-30T06:22:26.860Z,99277.64
2017-12-30T06:24:54.286Z,99275.28
2017-12-30T06:27:21.841Z,99275.91
2017-12-30T06:29:49.279Z,99271.98
2017-12-30T06:32:16.799Z,99274.99
2017-12-30T06:34:44.221Z,99267.64
2017-12-30T06:37:11.650Z,99270.27
2017-12-30T06:39:39.122Z,99261.22
2017-12-30T06:42:07.087Z,99263.08
2017-12-30T06:44:34.528Z,99272.53
2017-12-30T06:47:01.966Z,99263.63
2017-12-30T06:49:30.408Z,99265.71
2017-12-30T06:51:59.057Z,99266.62
2017-12-30T06:54:26.505Z,99272.66
2017-12-30T06:56:54.699Z,99280.39
2017-12-30T06:59:22.138Z,99280.12
2017-12-30T07:01:49.560Z,99281.95
2017-12-30T07:04:17.026Z,99272.89
2017-12-30T07:06:44.980Z,99269.89
2017-12-30T07:09:12.453Z,99272.38
2017-12-30T07:11:39.909Z,99266.58
2017-12-30T07:14:07.320Z,99257.14
2017-12-30T07:16:34.766Z,99259.53
2017-12-30T07:19:02.185Z,99263.47
2017-12-30T07:21:29.623Z,99269.23
2017-12-30T07:23:57.044Z,99267.01
2017-12-30T07:26:24.500Z,99263.34
2017-12-30T07:28:51.928Z,99256.80
2017-12-30T07:31:19.392Z,99261.00
2017-12-30T07:33:46.853Z,99255.85
2017-12-30T07:36:14.253Z,99254.80
2017-12-30T07:38:41.730Z,99257.83
2017-12-30T07:41:10.584Z,99255.08
2017-12-30T07:43:38.120Z,99243.53
2017-12-30T07:46:05.593Z,99242.52
2017-12-30T07:48:33.097Z,99242.25
2017-12-30T07:51:00.524Z,99245.02
2017-12-30T07:53:27.969Z,99242.75
2017-12-30T07:55:55.499Z,99237.66
2017-12-30T07:58:22.959Z,99233.98
2017-12-30T08:00:50.417Z,99236.88
2017-12-30T08:03:17.838Z,99234.54
2017-12-30T08:05:45.277Z,99236.76
2017-12-30T08:08:12.727Z,99238.34
2017-12-30T08:10:40.171Z,99247.66
2017-12-30T08:13:07.623Z,99238.98
2017-12-30T08:15:35.083Z,99247.25
2017-12-30T08:18:02.509Z,99253.53
2017-12-30T08:20:29.961Z,99263.89
2017-12-30T08:22:57.386Z,99264.58
2017-12-30T08:25:24.826Z,99259.59
2017-12-30T08:27:52.283Z,99262.73
2017-12-30T08:30:19.707Z,99263.55
2017-12-30T08:32:47.154Z,99247.92
2017-12-30T08:35:14.581Z,99249.92
2017-12-30T08:37:42.040Z,99245.71
2017-12-30T08:40:09.465Z,99240.22
2017-12-30T08:42:36.974Z,99238.14
2017-12-30T08:45:04.425Z,99232.37
2017-12-30T08:47:31.857Z,99239.22
2017-12-30T08:49:59.341Z,99233.72
2017-12-30T08:52:26.785Z,99226.27
2017-12-30T08:54:54.267Z,99219.59
2017-12-30T08:57:21.796Z,99225.63
2017-12-30T08:59:49.283Z,99218.70
2017-12-30T09:02:16.745Z,99214.39
2017-12-30T09:04:44.176Z,99203.48
2017-12-30T09:07:11.623Z,99199.16
2017-12-30T09:09:39.092Z,99196.30
2017-12-30T09:12:06.543Z,99198.67
2017-12-30T09:14:33.993Z,99198.80
2017-12-30T09:17:01.450Z,99196.42
2017-12-30T09:19:29.027Z,99191.58
2017-12-30T09:21:56.475Z,99185.78
2017-12-30T09:24:23.982Z,99177.40
2017-12-30T09:26:51.483Z,99177.27
2017-12-30T09:29:19.049Z,99162.41
2017-12-30T09:31:47.012Z,99155.06
2017-12-30T09:34:14.480Z,99141.64
2017-12-30T09:36:41.987Z,99127.31
2017-12-30T09:39:09.403Z,99127.45
2017-12-30T09:41:36.831Z,99122.69
2017-12-30T09:44:04.281Z,99114.56
2017-12-30T09:46:31.707Z,99116.92
2017-12-30T09:48:59.121Z,99097.97
2017-12-30T09:51:26.563Z,99099.27
2017-12-30T09:53:54.032Z,99088.73
2017-12-30T09:56:21.523Z,99077.02
2017-12-30T09:58:48.983Z,99064.77
2017-12-30T10:01:16.439Z,99061.20
2017-12-30T10:03:43.970Z,99056.97
2017-12-30T10:06:11.431Z,99038.41
2017-12-30T10:08:38.981Z,99031.16
2017-12-30T10:11:06.473Z,99029.00
2017-12-30T10:13:33.968Z,99022.67
2017-12-30T10:16:01.486Z,99023.05
2017-12-30T10:18:29.012Z,99025.39
2017-12-30T10:20:56.444Z,99023.22
2017-12-30T10:23:23.895Z,99015.41
2017-12-30T10:25:51.391Z,99006.81
2017-12-30T10:28:18.935Z,99006.77
2017-12-30T10:30:46.365Z,99001.86
2017-12-30T10:33:13.820Z,98997.68
2017-12-30T10:35:41.305Z,99010.02
2017-12-30T10:38:08.764Z,98997.66
2017-12-30T10:40:36.242Z,98984.70
2017-12-30T10:43:03.760Z,98983.38
2017-12-30T10:45:31.353Z,98979.23
2017-12-30T10:47:58.827Z,98982.03
2017-12-30T10:50:26.273Z,98968.00
2017-12-30T10:52:53.777Z,98962.10
2017-12-30T10:55:21.217Z,98960.78
2017-12-30T10:57:48.721Z,98945.93
2017-12-30T11:00:16.186Z,98960.52
2017-12-30T11:02:43.645Z,98957.14
2017-12-30T11:05:11.085Z,98964.22
2017-12-30T11:07:38.547Z,98967.00
2017-12-30T11:10:05.977Z,98965.13
2017-12-30T11:12:33.421Z,98962.64
2017-12-30T11:15:00.880Z,98953.97
2017-12-30T11:17:28.324Z,98936.58
2017-12-30T11:19:55.780Z,98931.69
2017-12-30T11:22:23.212Z,98921.44
2017-12-30T11:24:50.678Z,98907.88
2017-12-30T11:27:18.192Z,98896.80
2017-12-30T11:29:45.633Z,98900.48
2017-12-30T11:32:13.067Z,98902.98
2017-12-30T11:34:40.582Z,98893.88
2017-12-30T11:37:08.097Z,98880.44
2017-12-30T11:39:35.858Z,98892.73
2017-12-30T11:42:03.286Z,98886.92
2017-12-30T11:44:31.023Z,98877.70
2017-12-30T11:46:58.455Z,98871.53
2017-12-30T11:49:25.914Z,98863.23
2017-12-30T11:51:53.351Z,98852.33
2017-12-30T11:54:20.819Z,98851.52
2017-12-30T11:56:48.300Z,98857.92
2017-12-30T11:59:15.748Z,98847.56
2017-12-30T12:01:43.183Z,98834.34
2017-12-30T12:04:10.619Z,98842.61
2017-12-30T12:06:38.063Z,98837.83
2017-12-30T12:09:05.551Z,98831.98
2017-12-30T12:11:32.987Z,98811.75
2017-12-30T12:14:00.481Z,98809.74
2017-12-30T12:16:27.950Z,98790.78
2017-12-30T12:18:55.471Z,98786.55
2017-12-30T12:21:22.953Z,98789.98
2017-12-30T12:23:50.402Z,98771.70
2017-12-30T12:26:17.878Z,98766.79
2017-12-30T12:28:45.442Z,98750.69
2017-12-30T12:31:12.883Z,98747.48
2017-12-30T12:33:40.304Z,98751.45
2017-12-30T12:36:07.789Z,98756.48
2017-12-30T12:38:35.223Z,98738.91
2017-12-30T12:41:02.671Z,98731.23
2017-12-30T12:43:30.152Z,98726.72
2017-12-30T12:45:57.632Z,98716.08
2017-12-30T12:48:25.195Z,98715.39
2017-12-30T12:50:52.644Z,98699.36
2017-12-30T12:53:20.072Z,98700.47
2017-12-30T12:55:47.527Z,98697.30
2017-12-30T12:58:15.016Z,98682.14
2017-12-30T13:00:42.473Z,98682.94
2017-12-30T13:03:09.951Z,98694.17
2017-12-30T13:05:37.424Z,98673.23
2017-12-30T13:08:04.892Z,98679.08
2017-12-30T13:10:32.337Z,98680.53
2017-12-30T13:12:59.776Z,98668.73
2017-12-30T13:15:27.224Z,98673.73
2017-12-30T13:17:54.714Z,98667.55
2017-12-30T13:20:22.197Z,98663.83
2017-12-30T13:22:49.695Z,98674.66
2017-12-30T13:25:17.132Z,98664.72
2017-12-30T13:27:44.650Z,98646.13
2017-12-30T13:30:12.179Z,98652.81
2017-12-30T13:32:39.658Z,98655.52
2017-12-30T13:35:07.102Z,98644.39
2017-12-30T13:37:34.573Z,98638.98
2017-12-30T13:40:02.035Z,98631.38
2017-12-30T13:42:29.503Z,98628.05
2017-12-30T13:44:56.948Z,98637.95
2017-12-30T13:47:29.337Z,98637.00
2017-12-30T13:49:56.792Z,98636.89
2017-12-30T13:52:24.261Z,98638.43
2017-12-30T13:54:51.731Z,98649.33
2017-12-30T13:57:20.210Z,98642.75
2017-12-30T13:59:47.678Z,98639.05
2017-12-30T14:02:15.166Z,98638.43
2017-12-30T14:04:42.588Z,98640.00
2017-12-30T14:07:10.072Z,98636.61
2017-12-30T14:09:37.536Z,98627.87
2017-12-30T14:12:05.000Z,98632.08
2017-12-30T14:14:32.419Z,98631.52
2017-12-30T14:17:00.134Z,98622.83
2017-12-30T14:19:27.586Z,98624.62
2017-12-30T14:21:55.032Z,98621.59
2017-12-30T14:24:22.465Z,98621.55
2017-12-30T14:26:49.923Z,98613.10
2017-12-30T14:29:17.369Z,98607.55
2017-12-30T14:31:44.813Z,98615.44
2017-12-30T14:34:12.262Z,98610.17
2017-12-30T14:36:39.775Z,98623.56
2017-12-30T14:39:07.493Z,98611.20
2017-12-30T14:41:34.981Z,98594.23
2017-12-30T14:44:02.418Z,98587.25
2017-12-30T14:46:29.907Z,98601.84
2017-12-30T14:48:57.385Z,98613.66
2017-12-30T14:51:24.852Z,98613.36
2017-12-30T14:53:52.294Z,98598.36
2017-12-30T14:56:21.631Z,98614.41
2017-12-30T14:58:49.093Z,98613.42
2017-12-30T15:01:16.546Z,98610.09
2017-12-30T15:03:44.009Z,98599.27
2017-12-30T15:06:11.503Z,98603.47
2017-12-30T15:08:38.949Z,98602.48
2017-12-30T15:11:06.434Z,98604.56
2017-12-30T15:13:33.904Z,98608.39
2017-12-30T15:16:01.350Z,98605.36
2017-12-30T15:18:28.806Z,98590.64
2017-12-30T15:20:56.265Z,98608.75
2017-12-30T15:23:23.699Z,98614.37
2017-12-30T15:25:51.134Z,98601.12
2017-12-30T15:28:18.601Z,98591.30
2017-12-30T15:30:46.085Z,98603.33
2017-12-30T15:33:13.552Z,98589.48
2017-12-30T15:35:41.010Z,98590.48
2017-12-30T15:38:08.518Z,98591.51
2017-12-30T15:40:36.052Z,98595.84
2017-12-30T15:43:03.503Z,98602.79
2017-12-30T15:45:30.934Z,98610.05
2017-12-30T15:47:58.397Z,98622.63
2017-12-30T15:50:25.884Z,98618.69
2017-12-30T15:52:53.346Z,98610.28
2017-12-30T15:55:20.836Z,98612.22
2017-12-30T15:57:48.277Z,98619.13
2017-12-30T16:00:15.752Z,98608.22
2017-12-30T16:02:43.177Z,98600.56
2017-12-30T16:05:10.636Z,98622.39
2017-12-30T16:07:38.084Z,98619.65
2017-12-30T16:10:06.345Z,98605.09
2017-12-30T16:12:33.783Z,98606.81
2017-12-30T16:15:01.280Z,98619.23
2017-12-30T16:17:28.812Z,98604.80
2017-12-30T16:19:56.274Z,98610.32
2017-12-30T16:22:23.718Z,98614.53
2017-12-30T16:24:51.217Z,98610.82
2017-12-30T16:27:18.677Z,98611.84
2017-12-30T16:29:46.185Z,98637.30
2017-12-30T16:32:13.711Z,98640.36
2017-12-30T16:34:41.217Z,98641.16
2017-12-30T16:37:08.763Z,98639.89
2017-12-30T16:39:36.277Z,98643.66
2017-12-30T16:42:03.768Z,98640.21
2017-12-30T16:44:31.243Z,98654.77
2017-12-30T16:47:03.739Z,98645.79
2017-12-30T16:49:31.180Z,98652.38
2017-12-30T16:51:58.660Z,98654.87
2017-12-30T16:54:26.092Z,98670.00
2017-12-30T16:56:53.579Z,98672.95
2017-12-30T16:59:21.065Z,98661.06
2017-12-30T17:01:49.139Z,98657.66
2017-12-30T17:04:16.571Z,98665.98
2017-12-30T17:06:44.015Z,98661.51
2017-12-30T17:09:11.467Z,98668.94
2017-12-30T17:11:38.944Z,98673.39
2017-12-30T17:14:06.448Z,98677.45
2017-12-30T17:16:33.973Z,98674.00
2017-12-30T17:19:01.420Z,98682.57
2017-12-30T17:21:28.902Z,98682.47
2017-12-30T17:23:56.929Z,98698.48
2017-12-30T17:26:24.385Z,98697.30
2017-12-30T17:28:51.833Z,98700.23
2017-12-30T17:31:19.285Z,98697.05
2017-12-30T17:33:46.748Z,98710.88
2017-12-30T17:36:14.219Z,98690.94
2017-12-30T17:38:41.727Z,98700.50
2017-12-30T17:41:09.241Z,98713.31
2017-12-30T17:43:36.912Z,98713.50
2017-12-30T17:46:04.421Z,98717.77
2017-12-30T17:48:31.898Z,98725.55
2017-12-30T17:50:59.391Z,98725.84
2017-12-30T17:53:26.847Z,98719.74
2017-12-30T17:55:54.293Z,98726.77
2017-12-30T17:58:21.773Z,98735.64
2017-12-30T18:00:49.245Z,98745.47
2017-12-30T18:03:16.717Z,98746.53
2017-12-30T18:05:44.177Z,98752.32
2017-12-30T18:08:11.642Z,98753.19
2017-12-30T18:10:39.120Z,98762.12
2017-12-30T18:13:07.955Z,98753.59
2017-12-30T18:15:35.537Z,98761.46
2017-12-30T18:18:03.015Z,98768.22
2017-12-30T18:20:30.492Z,98756.48
2017-12-30T18:22:57.981Z,98745.52
2017-12-30T18:25:25.481Z,98750.79
2017-12-30T18:27:52.941Z,98756.37
2017-12-30T18:30:20.401Z,98757.38
2017-12-30T18:32:47.860Z,98764.75
2017-12-30T18:35:15.490Z,98775.31
2017-12-30T18:37:42.945Z,98775.61
2017-12-30T18:40:10.412Z,98773.05
2017-12-30T18:42:37.862Z,98774.98
2017-12-30T18:45:05.349Z,98781.89
2017-12-30T18:47:32.809Z,98794.95
2017-12-30T18:50:00.267Z,98791.70
2017-12-30T18:52:27.700Z,98796.98
2017-12-30T18:54:55.197Z,98810.09
2017-12-30T18:57:22.647Z,98810.09
2017-12-30T18:59:50.142Z,98800.40
2017-12-30T19:02:17.602Z,98800.83
2017-12-30T19:04:45.165Z,98807.88
2017-12-30T19:07:12.631Z,98784.06
2017-12-30T19:09:40.102Z,98778.00
2017-12-30T19:12:07.562Z,98772.19
2017-12-30T19:14:35.038Z,98762.16
2017-12-30T19:17:02.499Z,98768.41
2017-12-30T19:19:29.944Z,98761.20
2017-12-30T19:21:57.422Z,98768.39
2017-12-30T19:24:24.862Z,98768.00
2017-12-30T19:26:52.321Z,98774.67
2017-12-30T19:29:19.776Z,98771.88
2017-12-30T19:31:47.239Z,98782.60
2017-12-30T19:34:14.679Z,98783.51
2017-12-30T19:36:42.173Z,98778.02
2017-12-30T19:39:09.692Z,98776.69
2017-12-30T19:41:37.179Z,98785.88
2017-12-30T19:44:04.700Z,98795.14
2017-12-30T19:46:32.171Z,98793.97
2017-12-30T19:48:59.635Z,98789.03
2017-12-30T19:51:27.138Z,98785.51
2017-12-30T19:53:54.686Z,98787.82
2017-12-30T19:56:22.163Z,98793.05
2017-12-30T19:58:49.601Z,98799.27
2017-12-30T20:01:17.080Z,98786.27
2017-12-30T20:03:44.567Z,98793.62
2017-12-30T20:06:12.044Z,98786.68
2017-12-30T20:08:39.493Z,98787.91
2017-12-30T20:11:06.955Z,98796.87
2017-12-30T20:13:34.392Z,98786.59
2017-12-30T20:16:01.885Z,98779.08
2017-12-30T20:18:29.325Z,98769.88
2017-12-30T20:20:56.864Z,98781.79
2017-12-30T20:23:25.223Z,98789.45
2017-12-30T20:25:52.694Z,98781.85
2017-12-30T20:28:20.254Z,98775.55
2017-12-30T20:30:47.724Z,98775.60
2017-12-30T20:33:15.210Z,98782.43
2017-12-30T20:35:42.702Z,98789.75
2017-12-30T20:38:10.184Z,98796.77
2017-12-30T20:40:37.712Z,98802.95
2017-12-30T20:43:05.168Z,98795.08
2017-12-30T20:45:32.677Z,98800.41
2017-12-30T20:48:00.763Z,98796.41
2017-12-30T20:50:28.222Z,98793.11
2017-12-30T20:52:55.686Z,98803.77
2017-12-30T20:55:23.177Z,98788.25
2017-12-30T20:57:50.672Z,98802.39
2017-12-30T21:00:18.138Z,98807.77
2017-12-30T21:02:45.614Z,98818.96
2017-12-30T21:05:13.137Z,98797.72
2017-12-30T21:07:40.572Z,98786.09
2017-12-30T21:10:08.049Z,98800.94
2017-12-30T21:12:35.643Z,98789.16
2017-12-30T21:15:03.136Z,98798.61
2017-12-30T21:17:30.581Z,98796.89
2017-12-30T21:19:58.072Z,98811.16
2017-12-30T21:22:25.553Z,98813.26
2017-12-30T21:24:53.049Z,98813.26
2017-12-30T21:27:20.524Z,98808.91
2017-12-30T21:29:47.971Z,98816.23
2017-12-30T21:32:15.689Z,98809.91
2017-12-30T21:34:43.156Z,98804.86
2017-12-30T21:37:10.647Z,98809.23
2017-12-30T21:39:38.160Z,98806.36
2017-12-30T21:42:05.601Z,98802.54
2017-12-30T21:44:33.032Z,98812.25
2017-12-30T21:47:00.464Z,98806.64
2017-12-30T21:49:27.919Z,98818.83
2017-12-30T21:51:55.466Z,98819.04
2017-12-30T21:54:23.017Z,98815.18
2017-12-30T21:56:50.459Z,98799.91
2017-12-30T21:59:17.924Z,98800.45
2017-12-30T22:01:45.428Z,98804.45
2017-12-30T22:04:12.904Z,98802.34
2017-12-30T22:06:40.406Z,98807.82
2017-12-30T22:09:07.870Z,98808.86
2017-12-30T22:11:35.322Z,98812.92
2017-12-30T22:14:02.775Z,98829.22
2017-12-30T22:16:30.253Z,98827.29
2017-12-30T22:18:57.701Z,98827.22
2017-12-30T22:21:25.178Z,98822.13
2017-12-30T22:23:52.620Z,98819.40
2017-12-30T22:26:20.103Z,98827.45
2017-12-30T22:28:47.574Z,98833.13
2017-12-30T22:31:15.062Z,98838.44
2017-12-30T22:33:42.545Z,98847.09
2017-12-30T22:36:10.030Z,98854.05
2017-12-30T22:38:37.495Z,98855.63
2017-12-30T22:41:04.946Z,98845.61
2017-12-30T22:43:32.604Z,98853.58
2017-12-30T22:46:00.083Z,98858.04
2017-12-30T22:48:27.513Z,98869.03
2017-12-30T22:50:54.997Z,98883.03
2017-12-30T22:53:22.471Z,98880.74
2017-12-30T22:55:49.957Z,98870.91
2017-12-30T22:58:17.432Z,98884.56
2017-12-30T23:00:50.495Z,98905.45
2017-12-30T23:03:17.940Z,98907.71
2017-12-30T23:05:45.399Z,98922.64
2017-12-30T23:08:12.879Z,98909.56
2017-12-30T23:10:40.341Z,98921.52
2017-12-30T23:13:07.798Z,98927.16
2017-12-30T23:15:35.273Z,98932.39
2017-12-30T23:18:02.707Z,98958.36
2017-12-30T23:20:30.152Z,98943.10
2017-12-30T23:22:57.591Z,98959.20
2017-12-30T23:25:25.034Z,98949.34
2017-12-30T23:27:53.297Z,98957.56
2017-12-30T23:30:20.771Z,98967.55
2017-12-30T23:32:48.214Z,98981.64
2017-12-30T23:35:15.678Z,98980.19
2017-12-30T23:37:43.142Z,99000.56
2017-12-30T23:40:11.374Z,98999.23
2017-12-30T23:42:38.825Z,99003.70
2017-12-30T23:45:06.269Z,99011.92
2017-12-30T23:47:33.715Z,99012.61
2017-12-30T23:50:01.195Z,99017.61
2017-12-30T23:52:28.652Z,99032.23
2017-12-30T23:54:56.091Z,99032.08
2017-12-30T23:57:23.543Z,99037.88
2017-12-30T23:59:51.024Z,99051.25
